createdAt,value
2019-03-15T00:01:45.790Z,5.17
2019-03-15T00:04:14.331Z,5.13
2019-03-15T00:06:42.836Z,6.43
2019-03-15T00:09:11.378Z,6.50
2019-03-15T00:11:40.199Z,7.07
2019-03-15T00:14:08.845Z,7.53
2019-03-15T00:16:37.323Z,7.83
2019-03-15T00:19:06.071Z,7.90
2019-03-15T00:21:34.569Z,5.67
2019-03-15T00:24:03.181Z,5.87
2019-03-15T00:26:33.186Z,5.43
2019-03-15T00:29:02.107Z,4.40
2019-03-15T00:31:31.614Z,5.15
2019-03-15T00:34:00.497Z,5.87
2019-03-15T00:36:30.644Z,5.97
2019-03-15T00:39:02.321Z,6.67
2019-03-15T00:41:30.922Z,6.40
2019-03-15T00:43:59.374Z,6.40
2019-03-15T00:46:27.899Z,6.00
2019-03-15T00:48:56.361Z,5.57
2019-03-15T00:51:24.891Z,5.40
2019-03-15T00:53:54.508Z,5.03
2019-03-15T00:56:23.323Z,5.50
2019-03-15T00:58:51.851Z,4.70
2019-03-15T01:01:20.567Z,5.17
2019-03-15T01:03:49.123Z,5.83
2019-03-15T01:06:17.586Z,6.17
2019-03-15T01:08:46.253Z,5.13
2019-03-15T01:11:15.675Z,5.20
2019-03-15T01:13:44.138Z,5.10
2019-03-15T01:16:12.711Z,4.37
2019-03-15T01:18:41.230Z,4.83
2019-03-15T01:21:09.688Z,5.00
2019-03-15T01:23:38.239Z,4.77
2019-03-15T01:26:06.732Z,4.40
2019-03-15T01:28:35.199Z,3.57
2019-03-15T01:31:03.774Z,3.23
2019-03-15T01:33:32.241Z,3.00
2019-03-15T01:36:00.723Z,2.87
2019-03-15T01:38:29.316Z,2.63
2019-03-15T01:40:57.782Z,2.97
2019-03-15T01:43:32.300Z,4.07
2019-03-15T01:46:01.034Z,3.20
2019-03-15T01:48:29.565Z,2.60
2019-03-15T01:50:57.998Z,3.23
2019-03-15T01:53:26.655Z,2.07
2019-03-15T01:55:55.225Z,3.47
2019-03-15T01:58:23.701Z,1.60
2019-03-15T02:00:53.030Z,3.03
2019-03-15T02:03:21.630Z,2.63
2019-03-15T02:05:50.067Z,2.47
2019-03-15T02:08:18.611Z,3.73
2019-03-15T02:10:47.057Z,2.73
2019-03-15T02:13:15.510Z,2.77
2019-03-15T02:15:45.993Z,1.63
2019-03-15T02:18:14.543Z,3.90
2019-03-15T02:20:43.038Z,2.63
2019-03-15T02:23:11.682Z,1.67
2019-03-15T02:25:40.220Z,3.43
2019-03-15T02:28:08.749Z,2.33
2019-03-15T02:30:37.316Z,1.87
2019-03-15T02:33:06.184Z,2.10
2019-03-15T02:35:35.011Z,1.47
2019-03-15T02:38:03.593Z,1.83
2019-03-15T02:40:32.062Z,1.20
2019-03-15T02:43:00.529Z,1.27
2019-03-15T02:45:29.147Z,1.60
2019-03-15T02:47:57.626Z,1.57
2019-03-15T02:50:26.072Z,1.50
2019-03-15T02:52:54.710Z,1.53
2019-03-15T02:55:23.162Z,1.40
2019-03-15T02:57:51.618Z,1.40
2019-03-15T03:00:20.214Z,1.20
2019-03-15T03:02:48.671Z,2.03
2019-03-15T03:05:17.133Z,1.03
2019-03-15T03:07:45.727Z,1.77
2019-03-15T03:10:14.327Z,1.70
2019-03-15T03:12:44.013Z,1.70
2019-03-15T03:15:13.029Z,0.83
2019-03-15T03:17:41.582Z,1.17
2019-03-15T03:20:29.463Z,0.80
2019-03-15T03:22:58.003Z,0.90
2019-03-15T03:25:27.370Z,0.60
2019-03-15T03:27:56.031Z,0.70
2019-03-15T03:30:24.511Z,0.90
2019-03-15T03:32:52.937Z,0.77
2019-03-15T03:35:21.479Z,0.70
2019-03-15T03:37:50.272Z,0.50
2019-03-15T03:42:53.178Z,0.67
2019-03-15T03:45:23.383Z,0.40
2019-03-15T03:47:51.839Z,0.70
2019-03-15T03:50:20.429Z,0.57
2019-03-15T03:52:48.894Z,0.70
2019-03-15T03:55:17.420Z,0.90
2019-03-15T03:57:46.131Z,0.90
2019-03-15T04:00:15.739Z,1.20
2019-03-15T04:02:44.193Z,0.77
2019-03-15T04:05:12.898Z,1.00
2019-03-15T04:07:41.420Z,0.73
2019-03-15T04:10:11.515Z,0.87
2019-03-15T04:12:41.048Z,0.80
2019-03-15T04:15:10.998Z,0.80
2019-03-15T04:17:39.455Z,0.63
2019-03-15T04:20:12.957Z,1.07
2019-03-15T04:22:41.465Z,0.73
2019-03-15T04:25:10.987Z,2.07
2019-03-15T04:27:39.539Z,1.30
2019-03-15T04:30:10.963Z,1.10
2019-03-15T04:32:39.417Z,1.10
2019-03-15T04:35:08.276Z,1.63
2019-03-15T04:37:37.757Z,0.93
2019-03-15T04:40:09.505Z,1.30
2019-03-15T04:42:37.954Z,0.90
2019-03-15T04:45:08.241Z,1.03
2019-03-15T04:47:37.398Z,1.10
2019-03-15T04:50:07.203Z,1.40
2019-03-15T04:52:35.867Z,0.70
2019-03-15T04:55:05.631Z,0.87
2019-03-15T04:57:34.085Z,1.03
2019-03-15T05:00:02.553Z,0.90
2019-03-15T05:02:31.059Z,1.40
2019-03-15T05:05:00.422Z,0.90
2019-03-15T05:07:29.184Z,0.80
2019-03-15T05:09:57.729Z,0.90
2019-03-15T05:12:26.166Z,0.90
2019-03-15T05:14:54.614Z,0.80
2019-03-15T05:17:23.148Z,1.30
2019-03-15T05:19:53.540Z,0.80
2019-03-15T05:22:22.028Z,1.53
2019-03-15T05:24:50.518Z,1.20
2019-03-15T05:27:18.982Z,1.67
2019-03-15T05:29:47.516Z,1.43
2019-03-15T05:32:16.069Z,1.43
2019-03-15T05:34:44.543Z,1.30
2019-03-15T05:37:13.058Z,1.20
2019-03-15T05:39:41.695Z,1.00
2019-03-15T05:42:12.167Z,1.30
2019-03-15T05:44:41.431Z,1.10
2019-03-15T05:47:10.023Z,1.70
2019-03-15T05:49:38.541Z,1.03
2019-03-15T05:52:07.059Z,1.90
2019-03-15T05:54:35.687Z,2.03
2019-03-15T05:57:04.133Z,0.90
2019-03-15T05:59:33.611Z,1.40
2019-03-15T06:02:02.364Z,1.13
2019-03-15T06:04:30.813Z,1.40
2019-03-15T06:06:59.267Z,1.83
2019-03-15T06:09:27.886Z,1.13
2019-03-15T06:11:56.351Z,2.07
2019-03-15T06:14:24.883Z,1.90
2019-03-15T06:16:53.439Z,2.30
2019-03-15T06:19:21.889Z,2.13
2019-03-15T06:21:50.345Z,2.57
2019-03-15T06:24:18.902Z,2.27
2019-03-15T06:26:47.456Z,1.73
2019-03-15T06:29:15.914Z,2.23
2019-03-15T06:31:45.522Z,2.43
2019-03-15T06:34:14.115Z,3.50
2019-03-15T06:36:42.563Z,2.97
2019-03-15T06:39:11.197Z,2.23
2019-03-15T06:41:39.672Z,1.47
2019-03-15T06:44:08.135Z,1.80
2019-03-15T06:46:36.664Z,2.50
2019-03-15T06:49:05.180Z,1.93
2019-03-15T06:51:33.641Z,1.98
2019-03-15T06:54:11.506Z,2.60
2019-03-15T06:56:32.478Z,1.87
2019-03-15T06:59:01.084Z,2.50
2019-03-15T07:01:29.715Z,2.27
2019-03-15T07:03:58.173Z,1.20
2019-03-15T07:06:26.657Z,1.47
2019-03-15T07:08:55.291Z,1.50
2019-03-15T07:11:23.746Z,1.33
2019-03-15T07:13:52.202Z,1.63
2019-03-15T07:16:20.743Z,1.97
2019-03-15T07:18:49.201Z,1.93
2019-03-15T07:21:17.770Z,1.77
2019-03-15T07:23:46.414Z,1.30
2019-03-15T07:26:14.887Z,1.87
2019-03-15T07:28:43.372Z,1.50
2019-03-15T07:31:12.068Z,1.30
2019-03-15T07:33:40.660Z,2.07
2019-03-15T07:36:09.115Z,1.87
2019-03-15T07:38:37.743Z,1.40
2019-03-15T07:41:06.265Z,1.53
2019-03-15T07:43:34.734Z,1.07
2019-03-15T07:46:04.218Z,1.40
2019-03-15T07:48:32.669Z,1.60
2019-03-15T07:51:01.215Z,1.73
2019-03-15T07:53:29.827Z,1.20
2019-03-15T07:55:58.396Z,1.60
2019-03-15T07:58:26.924Z,1.63
2019-03-15T08:00:57.504Z,1.20
2019-03-15T08:03:25.893Z,1.13
2019-03-15T08:05:54.415Z,1.10
2019-03-15T08:08:22.981Z,1.17
2019-03-15T08:10:54.869Z,1.37
2019-03-15T08:13:21.679Z,1.50
2019-03-15T08:15:50.313Z,1.50
2019-03-15T08:18:18.789Z,1.00
2019-03-15T08:20:47.256Z,0.97
2019-03-15T08:23:16.844Z,1.33
2019-03-15T08:25:45.325Z,1.20
2019-03-15T08:28:13.783Z,1.17
2019-03-15T08:30:42.459Z,1.50
2019-03-15T08:33:11.350Z,1.37
2019-03-15T08:35:39.993Z,1.50
2019-03-15T08:38:08.629Z,1.60
2019-03-15T08:40:37.101Z,1.23
2019-03-15T08:43:05.609Z,1.73
2019-03-15T08:45:34.191Z,1.23
2019-03-15T08:48:02.639Z,1.00
2019-03-15T08:50:33.084Z,1.53
2019-03-15T08:53:01.695Z,1.03
2019-03-15T08:55:30.258Z,1.17
2019-03-15T08:57:58.764Z,1.70
2019-03-15T09:00:27.883Z,1.20
2019-03-15T09:02:56.452Z,2.17
2019-03-15T09:05:24.991Z,2.33
2019-03-15T09:07:53.666Z,1.33
2019-03-15T09:10:23.890Z,2.13
2019-03-15T09:12:52.371Z,1.70
2019-03-15T09:15:21.008Z,1.90
2019-03-15T09:17:49.531Z,1.97
2019-03-15T09:20:18.059Z,1.60
2019-03-15T09:22:48.648Z,2.50
2019-03-15T09:25:20.162Z,1.60
2019-03-15T09:27:48.308Z,2.00
2019-03-15T09:30:23.806Z,1.83
2019-03-15T09:32:47.838Z,2.20
2019-03-15T09:35:16.294Z,2.70
2019-03-15T09:37:47.310Z,1.83
2019-03-15T09:40:16.551Z,2.53
2019-03-15T09:42:46.041Z,2.00
2019-03-15T09:45:16.286Z,2.43
2019-03-15T09:47:45.080Z,2.60
2019-03-15T09:50:23.109Z,1.72
2019-03-15T09:52:45.315Z,2.20
2019-03-15T09:55:15.377Z,2.50
2019-03-15T09:57:44.788Z,2.20
2019-03-15T10:00:18.559Z,2.10
2019-03-15T10:02:47.183Z,2.00
2019-03-15T10:05:16.013Z,1.80
2019-03-15T10:07:44.749Z,2.03
2019-03-15T10:10:19.301Z,1.57
2019-03-15T10:12:48.006Z,1.77
2019-03-15T10:15:17.648Z,1.63
2019-03-15T10:17:46.174Z,2.20
2019-03-15T10:20:15.256Z,1.50
2019-03-15T10:22:43.923Z,1.67
2019-03-15T10:25:15.351Z,2.50
2019-03-15T10:27:43.886Z,1.40
2019-03-15T10:30:20.551Z,2.00
2019-03-15T10:32:49.102Z,1.93
2019-03-15T10:35:18.402Z,1.63
2019-03-15T10:37:47.031Z,1.33
2019-03-15T10:40:17.925Z,1.43
2019-03-15T10:42:46.455Z,1.87
2019-03-15T10:45:15.060Z,1.80
2019-03-15T10:47:43.638Z,2.70
2019-03-15T10:50:19.523Z,2.10
2019-03-15T10:52:48.196Z,1.37
2019-03-15T10:55:16.774Z,1.70
2019-03-15T10:57:45.284Z,1.70
2019-03-15T11:00:16.479Z,1.57
2019-03-15T11:02:44.999Z,2.17
2019-03-15T11:05:13.469Z,1.50
2019-03-15T11:07:42.255Z,1.70
2019-03-15T11:10:12.162Z,1.70
2019-03-15T11:12:40.630Z,1.70
2019-03-15T11:15:11.106Z,2.03
2019-03-15T11:17:39.547Z,1.83
2019-03-15T11:20:14.476Z,1.47
2019-03-15T11:22:47.259Z,1.77
2019-03-15T11:25:15.703Z,1.93
2019-03-15T11:27:44.208Z,1.70
2019-03-15T11:30:13.995Z,1.70
2019-03-15T11:32:42.580Z,2.00
2019-03-15T11:35:12.132Z,1.60
2019-03-15T11:37:42.702Z,1.73
2019-03-15T11:40:19.078Z,1.90
2019-03-15T11:42:47.292Z,1.97
2019-03-15T11:45:16.686Z,2.10
2019-03-15T11:48:02.079Z,1.90
2019-03-15T11:50:21.044Z,1.57
2019-03-15T11:52:49.756Z,2.07
2019-03-15T11:55:18.304Z,1.90
2019-03-15T11:57:46.961Z,1.57
2019-03-15T12:00:16.653Z,1.40
2019-03-15T12:02:45.136Z,1.93
2019-03-15T12:05:15.285Z,2.40
2019-03-15T12:07:44.142Z,1.93
2019-03-15T12:10:14.033Z,1.53
2019-03-15T12:12:42.690Z,2.20
2019-03-15T12:15:17.798Z,2.23
2019-03-15T12:17:46.549Z,2.63
2019-03-15T12:20:15.144Z,2.80
2019-03-15T12:22:43.593Z,1.33
2019-03-15T12:25:13.782Z,2.03
2019-03-15T12:27:42.600Z,1.93
2019-03-15T12:30:18.413Z,1.90
2019-03-15T12:32:47.148Z,1.93
2019-03-15T12:35:16.358Z,1.87
2019-03-15T12:37:44.899Z,2.17
2019-03-15T12:40:14.869Z,2.00
2019-03-15T12:42:43.385Z,1.60
2019-03-15T12:45:12.623Z,1.80
2019-03-15T12:47:41.254Z,1.97
2019-03-15T12:50:14.342Z,1.73
2019-03-15T12:52:47.658Z,1.90
2019-03-15T12:55:14.194Z,2.00
2019-03-15T12:57:42.820Z,1.90
2019-03-15T13:00:15.886Z,2.00
2019-03-15T13:02:44.536Z,2.03
2019-03-15T13:05:13.149Z,2.07
2019-03-15T13:07:41.604Z,1.77
2019-03-15T13:10:18.405Z,1.60
2019-03-15T13:12:46.942Z,1.27
2019-03-15T13:15:17.072Z,1.80
2019-03-15T13:17:45.787Z,1.83
2019-03-15T13:20:17.087Z,1.93
2019-03-15T13:22:46.756Z,1.70
2019-03-15T13:25:15.314Z,2.00
2019-03-15T13:27:43.848Z,1.67
2019-03-15T13:30:16.065Z,2.27
2019-03-15T13:32:45.802Z,1.73
2019-03-15T13:35:14.739Z,2.13
2019-03-15T13:37:43.482Z,2.53
2019-03-15T13:40:19.197Z,2.20
2019-03-15T13:42:47.846Z,2.47
2019-03-15T13:45:16.938Z,2.10
2019-03-15T13:47:45.481Z,2.53
2019-03-15T13:50:16.060Z,1.80
2019-03-15T13:52:44.510Z,1.80
2019-03-15T13:55:13.396Z,2.47
2019-03-15T13:57:41.930Z,2.80
2019-03-15T14:00:18.143Z,2.50
2019-03-15T14:02:46.670Z,2.07
2019-03-15T14:05:19.502Z,1.83
2019-03-15T14:07:49.945Z,1.67
2019-03-15T14:10:18.490Z,1.47
2019-03-15T14:12:47.046Z,1.77
2019-03-15T14:15:20.100Z,1.50
2019-03-15T14:17:48.575Z,1.50
2019-03-15T14:20:17.190Z,2.27
2019-03-15T14:22:47.543Z,1.83
2019-03-15T14:25:21.936Z,1.97
2019-03-15T14:27:51.487Z,2.00
2019-03-15T14:30:20.042Z,1.63
2019-03-15T14:32:48.498Z,1.93
2019-03-15T14:35:17.147Z,2.47
2019-03-15T14:37:45.771Z,2.43
2019-03-15T14:40:14.587Z,2.30
2019-03-15T14:42:43.255Z,2.00
2019-03-15T14:45:13.178Z,2.10
2019-03-15T14:47:41.702Z,2.40
2019-03-15T14:50:15.217Z,2.30
2019-03-15T14:52:44.492Z,2.20
2019-03-15T14:55:14.597Z,2.60
2019-03-15T14:57:51.911Z,2.30
2019-03-15T15:00:16.574Z,3.07
2019-03-15T15:02:45.242Z,2.70
2019-03-15T15:05:13.949Z,2.67
2019-03-15T15:07:42.409Z,3.00
2019-03-15T15:10:15.335Z,2.77
2019-03-15T15:12:43.897Z,2.60
2019-03-15T15:15:13.918Z,2.50
2019-03-15T15:17:42.393Z,2.43
2019-03-15T15:20:12.180Z,2.70
2019-03-15T15:22:41.659Z,2.63
2019-03-15T15:25:17.507Z,4.07
2019-03-15T15:27:46.056Z,3.57
2019-03-15T15:30:15.961Z,2.87
2019-03-15T15:32:44.699Z,3.47
2019-03-15T15:35:14.064Z,3.17
2019-03-15T15:37:42.729Z,4.30
2019-03-15T15:40:14.360Z,3.43
2019-03-15T15:42:42.893Z,4.20
2019-03-15T15:45:12.871Z,5.30
2019-03-15T15:47:41.521Z,13.23
2019-03-15T15:50:12.325Z,7.97
2019-03-15T15:52:41.076Z,7.70
2019-03-15T15:55:14.004Z,5.40
2019-03-15T15:57:42.740Z,11.80
2019-03-15T16:00:16.618Z,6.53
2019-03-15T16:02:45.516Z,5.80
2019-03-15T16:05:15.198Z,4.70
2019-03-15T16:07:43.738Z,4.70
2019-03-15T16:10:17.376Z,5.23
2019-03-15T16:12:44.535Z,4.20
2019-03-15T16:15:15.599Z,4.80
2019-03-15T16:17:45.643Z,3.97
2019-03-15T16:20:19.184Z,3.93
2019-03-15T16:22:47.669Z,3.73
2019-03-15T16:25:16.388Z,6.87
2019-03-15T16:27:44.853Z,7.50
2019-03-15T16:30:15.536Z,4.77
2019-03-15T16:32:44.127Z,4.13
2019-03-15T16:35:13.412Z,5.00
2019-03-15T16:37:42.307Z,4.60
2019-03-15T16:40:12.366Z,4.43
2019-03-15T16:42:41.037Z,4.43
2019-03-15T16:45:27.445Z,4.70
2019-03-15T16:47:55.901Z,4.70
2019-03-15T16:50:24.480Z,5.00
2019-03-15T16:52:53.095Z,4.97
2019-03-15T16:55:21.546Z,5.10
2019-03-15T16:57:50.072Z,5.47
2019-03-15T17:00:18.634Z,5.57
2019-03-15T17:02:47.112Z,5.87
2019-03-15T17:05:15.923Z,5.57
2019-03-15T17:07:44.450Z,5.30
2019-03-15T17:10:19.727Z,4.83
2019-03-15T17:12:48.258Z,5.80
2019-03-15T17:15:26.131Z,5.00
2019-03-15T17:17:54.661Z,4.77
2019-03-15T17:20:23.194Z,4.90
2019-03-15T17:22:51.725Z,4.83
2019-03-15T17:25:20.258Z,5.03
2019-03-15T17:27:48.798Z,4.77
2019-03-15T17:30:17.980Z,4.03
2019-03-15T17:32:46.676Z,4.80
2019-03-15T17:35:16.751Z,4.80
2019-03-15T17:37:45.353Z,10.93
2019-03-15T17:40:17.686Z,6.42
2019-03-15T17:42:46.444Z,8.47
2019-03-15T17:45:15.149Z,8.23
2019-03-15T17:47:43.802Z,8.73
2019-03-15T17:50:21.117Z,10.10
2019-03-15T17:52:49.729Z,5.63
2019-03-15T17:55:18.636Z,6.00
2019-03-15T17:57:47.385Z,5.03
2019-03-15T18:00:35.611Z,4.93
2019-03-15T18:03:19.265Z,5.00
2019-03-15T18:05:34.878Z,4.40
2019-03-15T18:08:03.497Z,4.70
2019-03-15T18:10:32.840Z,4.20
2019-03-15T18:13:01.536Z,6.30
2019-03-15T18:15:30.022Z,16.67
2019-03-15T18:18:00.186Z,7.87
2019-03-15T18:20:28.925Z,4.40
2019-03-15T18:23:00.188Z,5.50
2019-03-15T18:25:28.729Z,6.80
2019-03-15T18:27:57.208Z,3.90
2019-03-15T18:30:25.728Z,4.57
2019-03-15T18:32:54.395Z,4.40
2019-03-15T18:35:32.851Z,7.03
2019-03-15T18:37:55.922Z,7.37
2019-03-15T18:40:24.473Z,6.77
2019-03-15T18:42:52.994Z,6.37
2019-03-15T18:45:22.138Z,6.20
2019-03-15T18:47:50.767Z,6.43
2019-03-15T18:50:26.300Z,8.43
2019-03-15T18:52:57.008Z,9.73
2019-03-15T18:55:25.479Z,8.70
2019-03-15T18:57:54.350Z,9.50
2019-03-15T19:00:24.131Z,8.60
2019-03-15T19:02:52.657Z,6.70
2019-03-15T19:05:21.193Z,6.77
2019-03-15T19:07:49.721Z,6.40
2019-03-15T19:10:18.255Z,4.93
2019-03-15T19:12:47.765Z,5.00
2019-03-15T19:15:18.359Z,4.90
2019-03-15T19:17:46.948Z,4.80
2019-03-15T19:20:16.655Z,4.07
2019-03-15T19:22:45.114Z,4.90
2019-03-15T19:25:14.828Z,5.40
2019-03-15T19:27:45.619Z,5.73
2019-03-15T19:30:21.518Z,7.73
2019-03-15T19:32:49.983Z,7.37
2019-03-15T19:35:18.617Z,8.20
2019-03-15T19:37:47.144Z,7.23
2019-03-15T19:40:16.874Z,8.10
2019-03-15T19:42:45.950Z,8.20
2019-03-15T19:45:15.401Z,8.40
2019-03-15T19:47:43.878Z,8.40
2019-03-15T19:50:14.664Z,8.67
2019-03-15T19:52:43.140Z,9.23
2019-03-15T19:55:13.434Z,9.73
2019-03-15T19:57:42.383Z,10.13
2019-03-15T20:00:16.178Z,9.50
2019-03-15T20:02:44.734Z,9.30
2019-03-15T20:05:13.540Z,8.47
2019-03-15T20:07:45.189Z,8.43
2019-03-15T20:10:16.702Z,10.58
2019-03-15T20:12:45.184Z,9.50
2019-03-15T20:15:15.004Z,8.83
2019-03-15T20:17:43.631Z,8.43
2019-03-15T20:20:17.402Z,8.93
2019-03-15T20:22:45.929Z,7.03
2019-03-15T20:25:15.658Z,4.70
2019-03-15T20:27:44.243Z,5.77
2019-03-15T20:30:26.525Z,4.30
2019-03-15T20:32:53.926Z,2.33
2019-03-15T20:35:22.455Z,2.20
2019-03-15T20:37:51.666Z,1.97
2019-03-15T20:40:20.285Z,2.02
2019-03-15T20:42:48.744Z,1.80
2019-03-15T20:45:24.823Z,1.37
2019-03-15T20:47:54.278Z,1.03
2019-03-15T20:50:22.955Z,1.60
2019-03-15T20:52:51.845Z,1.10
2019-03-15T20:55:20.310Z,1.23
2019-03-15T20:57:48.879Z,1.10
2019-03-15T21:00:18.907Z,1.40
2019-03-15T21:02:47.497Z,1.87
2019-03-15T21:05:16.180Z,2.30
2019-03-15T21:07:44.747Z,2.67
2019-03-15T21:10:19.468Z,2.13
2019-03-15T21:12:48.075Z,2.37
2019-03-15T21:15:17.549Z,2.57
2019-03-15T21:17:46.275Z,2.77
2019-03-15T21:20:17.796Z,2.80
2019-03-15T21:22:46.550Z,3.10
2019-03-15T21:25:15.022Z,3.50
2019-03-15T21:27:54.216Z,2.40
2019-03-15T21:30:26.555Z,3.13
2019-03-15T21:32:55.045Z,3.33
2019-03-15T21:35:23.515Z,3.23
2019-03-15T21:37:52.163Z,4.33
2019-03-15T21:40:21.677Z,4.17
2019-03-15T21:42:50.208Z,4.07
2019-03-15T21:45:19.796Z,3.30
2019-03-15T21:47:48.265Z,4.33
2019-03-15T21:50:20.729Z,3.63
2019-03-15T21:52:49.347Z,3.67
2019-03-15T21:55:17.948Z,3.53
2019-03-15T21:57:46.403Z,3.37
2019-03-15T22:00:16.329Z,3.83
2019-03-15T22:02:44.813Z,3.50
2019-03-15T22:05:13.596Z,4.03
2019-03-15T22:07:42.313Z,4.20
2019-03-15T22:10:14.852Z,3.63
2019-03-15T22:12:43.558Z,3.13
2019-03-15T22:15:13.198Z,2.63
2019-03-15T22:17:41.943Z,2.40
2019-03-15T22:20:15.045Z,3.43
2019-03-15T22:22:43.789Z,2.50
2019-03-15T22:25:12.401Z,2.07
2019-03-15T22:27:40.860Z,1.97
2019-03-15T22:30:14.350Z,2.67
2019-03-15T22:32:42.864Z,2.60
2019-03-15T22:38:43.339Z,0.67
2019-03-15T22:41:11.805Z,0.70
2019-03-15T22:43:40.262Z,0.70
2019-03-15T22:46:09.540Z,0.70
2019-03-15T22:48:38.001Z,0.60
2019-03-15T22:51:06.466Z,0.50
2019-03-15T22:53:35.028Z,0.80
2019-03-15T22:56:03.475Z,0.60
2019-03-15T22:58:31.943Z,0.50
2019-03-15T23:01:01.740Z,0.30
2019-03-15T23:03:30.267Z,0.70
2019-03-15T23:05:58.774Z,0.70
2019-03-15T23:08:27.419Z,0.90
2019-03-15T23:10:55.891Z,0.50
2019-03-15T23:13:24.494Z,1.10
2019-03-15T23:15:52.950Z,0.67
2019-03-15T23:18:21.403Z,1.00
2019-03-15T23:20:49.962Z,1.07
2019-03-15T23:23:23.915Z,0.80
2019-03-15T23:25:48.746Z,0.60
2019-03-15T23:28:17.449Z,0.70
2019-03-15T23:30:46.010Z,0.70
2019-03-15T23:33:14.464Z,0.77
2019-03-15T23:35:53.456Z,0.77
2019-03-15T23:38:13.309Z,0.90
2019-03-15T23:40:41.836Z,0.60
2019-03-15T23:43:10.519Z,0.53
2019-03-15T23:45:39.953Z,0.77
2019-03-15T23:48:08.514Z,0.50
2019-03-15T23:50:37.037Z,0.80
2019-03-15T23:53:05.490Z,0.90
2019-03-15T23:55:34.072Z,1.17
2019-03-15T23:58:02.629Z,0.70
